sensor_id;sensor_type;location;lat;lon;timestamp;P1;durP1;ratioP1;P2;durP2;ratioP2
85137;SDS011;75497;42.708;23.330;2024-03-06T00:02:25;25.67;;;13.52;;
85137;SDS011;75497;42.708;23.330;2024-03-06T00:04:51;23.17;;;11.13;;
85137;SDS011;75497;42.708;23.330;2024-03-06T00:07:18;24.65;;;12.00;;
85137;SDS011;75497;42.708;23.330;2024-03-06T00:09:43;23.92;;;11.57;;
85137;SDS011;75497;42.708;23.330;2024-03-06T00:12:09;24.20;;;11.25;;
85137;SDS011;75497;42.708;23.330;2024-03-06T00:14:35;20.33;;;9.57;;
85137;SDS011;75497;42.708;23.330;2024-03-06T00:17:01;21.50;;;10.70;;
85137;SDS011;75497;42.708;23.330;2024-03-06T00:19:29;20.08;;;9.68;;
85137;SDS011;75497;42.708;23.330;2024-03-06T00:21:55;20.50;;;9.30;;
85137;SDS011;75497;42.708;23.330;2024-03-06T00:24:20;22.50;;;9.75;;
85137;SDS011;75497;42.708;23.330;2024-03-06T00:26:48;22.98;;;11.23;;
85137;SDS011;75497;42.708;23.330;2024-03-06T00:29:13;20.85;;;11.07;;
85137;SDS011;75497;42.708;23.330;2024-03-06T00:31:42;22.73;;;11.80;;
85137;SDS011;75497;42.708;23.330;2024-03-06T00:34:10;24.33;;;11.15;;
85137;SDS011;75497;42.708;23.330;2024-03-06T00:36:37;21.48;;;9.57;;
85137;SDS011;75497;42.708;23.330;2024-03-06T00:39:03;24.73;;;11.73;;
85137;SDS011;75497;42.708;23.330;2024-03-06T00:41:30;24.00;;;11.52;;
85137;SDS011;75497;42.708;23.330;2024-03-06T00:43:56;25.73;;;12.07;;
85137;SDS011;75497;42.708;23.330;2024-03-06T00:46:22;24.13;;;11.57;;
85137;SDS011;75497;42.708;23.330;2024-03-06T00:48:48;26.40;;;11.93;;
85137;SDS011;75497;42.708;23.330;2024-03-06T00:51:13;22.92;;;12.35;;
85137;SDS011;75497;42.708;23.330;2024-03-06T00:53:39;19.75;;;9.95;;
85137;SDS011;75497;42.708;23.330;2024-03-06T00:56:05;22.45;;;10.13;;
85137;SDS011;75497;42.708;23.330;2024-03-06T00:58:32;22.23;;;11.00;;
85137;SDS011;75497;42.708;23.330;2024-03-06T01:00:57;23.17;;;10.13;;
85137;SDS011;75497;42.708;23.330;2024-03-06T01:03:23;22.75;;;11.43;;
85137;SDS011;75497;42.708;23.330;2024-03-06T01:05:49;22.83;;;11.30;;
85137;SDS011;75497;42.708;23.330;2024-03-06T01:08:17;20.30;;;9.65;;
85137;SDS011;75497;42.708;23.330;2024-03-06T01:10:43;23.60;;;10.93;;
85137;SDS011;75497;42.708;23.330;2024-03-06T01:13:09;23.92;;;11.20;;
85137;SDS011;75497;42.708;23.330;2024-03-06T01:15:36;23.70;;;10.73;;
85137;SDS011;75497;42.708;23.330;2024-03-06T01:18:02;23.95;;;12.50;;
85137;SDS011;75497;42.708;23.330;2024-03-06T01:20:28;27.85;;;12.35;;
85137;SDS011;75497;42.708;23.330;2024-03-06T01:22:54;24.90;;;10.98;;
85137;SDS011;75497;42.708;23.330;2024-03-06T01:25:20;25.13;;;11.75;;
85137;SDS011;75497;42.708;23.330;2024-03-06T01:27:47;22.52;;;11.65;;
85137;SDS011;75497;42.708;23.330;2024-03-06T01:30:14;23.63;;;11.30;;
85137;SDS011;75497;42.708;23.330;2024-03-06T01:32:39;27.25;;;12.85;;
85137;SDS011;75497;42.708;23.330;2024-03-06T01:35:05;27.85;;;12.82;;
85137;SDS011;75497;42.708;23.330;2024-03-06T01:37:31;24.98;;;11.77;;
85137;SDS011;75497;42.708;23.330;2024-03-06T01:39:57;25.40;;;12.63;;
85137;SDS011;75497;42.708;23.330;2024-03-06T01:42:23;23.40;;;11.02;;
85137;SDS011;75497;42.708;23.330;2024-03-06T01:44:49;22.35;;;10.80;;
85137;SDS011;75497;42.708;23.330;2024-03-06T01:47:14;25.33;;;11.23;;
85137;SDS011;75497;42.708;23.330;2024-03-06T01:49:40;25.85;;;12.07;;
85137;SDS011;75497;42.708;23.330;2024-03-06T01:52:07;24.15;;;12.45;;
85137;SDS011;75497;42.708;23.330;2024-03-06T01:54:36;25.20;;;10.80;;
85137;SDS011;75497;42.708;23.330;2024-03-06T01:57:02;27.23;;;11.60;;
85137;SDS011;75497;42.708;23.330;2024-03-06T01:59:29;23.17;;;11.68;;
85137;SDS011;75497;42.708;23.330;2024-03-06T02:01:55;23.05;;;11.13;;
85137;SDS011;75497;42.708;23.330;2024-03-06T02:04:20;23.58;;;10.82;;
85137;SDS011;75497;42.708;23.330;2024-03-06T02:06:47;25.10;;;11.45;;
85137;SDS011;75497;42.708;23.330;2024-03-06T02:09:13;27.85;;;11.70;;
85137;SDS011;75497;42.708;23.330;2024-03-06T02:11:39;25.38;;;11.88;;
85137;SDS011;75497;42.708;23.330;2024-03-06T02:14:05;35.22;;;14.13;;
85137;SDS011;75497;42.708;23.330;2024-03-06T02:16:35;29.67;;;13.77;;
85137;SDS011;75497;42.708;23.330;2024-03-06T02:19:01;30.75;;;15.05;;
85137;SDS011;75497;42.708;23.330;2024-03-06T02:21:26;29.48;;;14.00;;
85137;SDS011;75497;42.708;23.330;2024-03-06T02:23:52;30.50;;;14.73;;
85137;SDS011;75497;42.708;23.330;2024-03-06T02:26:19;31.95;;;15.13;;
85137;SDS011;75497;42.708;23.330;2024-03-06T02:28:46;29.20;;;12.50;;
85137;SDS011;75497;42.708;23.330;2024-03-06T02:31:13;30.00;;;14.18;;
85137;SDS011;75497;42.708;23.330;2024-03-06T02:33:38;26.73;;;12.25;;
85137;SDS011;75497;42.708;23.330;2024-03-06T02:36:04;25.95;;;12.75;;
85137;SDS011;75497;42.708;23.330;2024-03-06T02:38:30;24.05;;;10.65;;
85137;SDS011;75497;42.708;23.330;2024-03-06T02:40:56;26.92;;;11.32;;
85137;SDS011;75497;42.708;23.330;2024-03-06T02:43:22;28.50;;;12.73;;
85137;SDS011;75497;42.708;23.330;2024-03-06T02:45:47;25.75;;;13.40;;
85137;SDS011;75497;42.708;23.330;2024-03-06T02:48:13;28.70;;;13.10;;
85137;SDS011;75497;42.708;23.330;2024-03-06T02:50:38;27.60;;;12.00;;
85137;SDS011;75497;42.708;23.330;2024-03-06T02:53:04;27.70;;;11.38;;
85137;SDS011;75497;42.708;23.330;2024-03-06T02:55:29;23.10;;;10.80;;
85137;SDS011;75497;42.708;23.330;2024-03-06T02:57:55;23.33;;;11.98;;
85137;SDS011;75497;42.708;23.330;2024-03-06T03:00:21;27.08;;;12.23;;
85137;SDS011;75497;42.708;23.330;2024-03-06T03:02:47;27.80;;;11.73;;
85137;SDS011;75497;42.708;23.330;2024-03-06T03:05:12;26.73;;;11.38;;
85137;SDS011;75497;42.708;23.330;2024-03-06T03:07:38;27.45;;;12.23;;
85137;SDS011;75497;42.708;23.330;2024-03-06T03:10:04;23.67;;;10.45;;
85137;SDS011;75497;42.708;23.330;2024-03-06T03:12:29;24.73;;;11.05;;
85137;SDS011;75497;42.708;23.330;2024-03-06T03:14:57;25.77;;;11.20;;
85137;SDS011;75497;42.708;23.330;2024-03-06T03:17:23;24.83;;;11.23;;
85137;SDS011;75497;42.708;23.330;2024-03-06T03:19:49;24.75;;;11.73;;
85137;SDS011;75497;42.708;23.330;2024-03-06T03:22:14;28.13;;;11.52;;
85137;SDS011;75497;42.708;23.330;2024-03-06T03:24:42;24.05;;;12.02;;
85137;SDS011;75497;42.708;23.330;2024-03-06T03:27:08;24.92;;;11.48;;
85137;SDS011;75497;42.708;23.330;2024-03-06T03:29:34;27.98;;;10.75;;
85137;SDS011;75497;42.708;23.330;2024-03-06T03:31:59;26.92;;;12.27;;
85137;SDS011;75497;42.708;23.330;2024-03-06T03:34:25;29.98;;;11.57;;
85137;SDS011;75497;42.708;23.330;2024-03-06T03:36:50;28.98;;;13.32;;
85137;SDS011;75497;42.708;23.330;2024-03-06T03:39:16;25.35;;;12.20;;
85137;SDS011;75497;42.708;23.330;2024-03-06T03:41:47;28.20;;;12.38;;
85137;SDS011;75497;42.708;23.330;2024-03-06T03:44:17;28.65;;;12.63;;
85137;SDS011;75497;42.708;23.330;2024-03-06T03:46:45;26.38;;;10.80;;
85137;SDS011;75497;42.708;23.330;2024-03-06T03:49:11;30.83;;;12.27;;
85137;SDS011;75497;42.708;23.330;2024-03-06T03:51:37;24.13;;;11.43;;
85137;SDS011;75497;42.708;23.330;2024-03-06T03:54:04;26.75;;;11.55;;
85137;SDS011;75497;42.708;23.330;2024-03-06T03:56:30;25.75;;;11.68;;
85137;SDS011;75497;42.708;23.330;2024-03-06T03:58:56;25.83;;;10.90;;
85137;SDS011;75497;42.708;23.330;2024-03-06T04:01:23;24.50;;;10.93;;
85137;SDS011;75497;42.708;23.330;2024-03-06T04:03:49;22.27;;;10.70;;
85137;SDS011;75497;42.708;23.330;2024-03-06T04:06:16;25.65;;;12.57;;
85137;SDS011;75497;42.708;23.330;2024-03-06T04:08:41;23.67;;;10.57;;
85137;SDS011;75497;42.708;23.330;2024-03-06T04:11:07;30.38;;;11.93;;
85137;SDS011;75497;42.708;23.330;2024-03-06T04:13:38;23.92;;;11.00;;
85137;SDS011;75497;42.708;23.330;2024-03-06T04:16:04;23.70;;;10.55;;
85137;SDS011;75497;42.708;23.330;2024-03-06T04:18:30;24.90;;;10.55;;
85137;SDS011;75497;42.708;23.330;2024-03-06T04:21:08;23.67;;;12.05;;
85137;SDS011;75497;42.708;23.330;2024-03-06T04:23:35;24.15;;;10.52;;
85137;SDS011;75497;42.708;23.330;2024-03-06T04:26:01;23.90;;;11.60;;
85137;SDS011;75497;42.708;23.330;2024-03-06T04:28:28;25.52;;;10.80;;
85137;SDS011;75497;42.708;23.330;2024-03-06T04:30:54;22.65;;;10.60;;
85137;SDS011;75497;42.708;23.330;2024-03-06T04:33:20;25.38;;;10.98;;
85137;SDS011;75497;42.708;23.330;2024-03-06T04:35:46;27.75;;;12.05;;
85137;SDS011;75497;42.708;23.330;2024-03-06T04:38:12;34.03;;;16.27;;
85137;SDS011;75497;42.708;23.330;2024-03-06T04:40:37;40.42;;;21.50;;
85137;SDS011;75497;42.708;23.330;2024-03-06T04:43:03;31.25;;;15.85;;
85137;SDS011;75497;42.708;23.330;2024-03-06T04:45:28;30.80;;;14.85;;
85137;SDS011;75497;42.708;23.330;2024-03-06T04:47:54;25.70;;;13.43;;
85137;SDS011;75497;42.708;23.330;2024-03-06T04:50:20;26.25;;;13.20;;
85137;SDS011;75497;42.708;23.330;2024-03-06T04:52:46;29.25;;;15.48;;
85137;SDS011;75497;42.708;23.330;2024-03-06T04:55:11;27.17;;;12.68;;
85137;SDS011;75497;42.708;23.330;2024-03-06T04:57:39;30.45;;;13.55;;
85137;SDS011;75497;42.708;23.330;2024-03-06T05:00:08;30.10;;;14.25;;
85137;SDS011;75497;42.708;23.330;2024-03-06T05:02:34;28.17;;;12.35;;
85137;SDS011;75497;42.708;23.330;2024-03-06T05:05:01;28.90;;;12.65;;
85137;SDS011;75497;42.708;23.330;2024-03-06T05:07:28;30.90;;;13.35;;
85137;SDS011;75497;42.708;23.330;2024-03-06T05:09:54;31.98;;;12.40;;
85137;SDS011;75497;42.708;23.330;2024-03-06T05:12:21;31.10;;;13.57;;
85137;SDS011;75497;42.708;23.330;2024-03-06T05:14:46;25.33;;;11.05;;
85137;SDS011;75497;42.708;23.330;2024-03-06T05:17:12;27.13;;;12.40;;
85137;SDS011;75497;42.708;23.330;2024-03-06T05:19:37;29.02;;;12.50;;
85137;SDS011;75497;42.708;23.330;2024-03-06T05:22:03;26.35;;;12.82;;
85137;SDS011;75497;42.708;23.330;2024-03-06T05:24:29;28.48;;;12.60;;
85137;SDS011;75497;42.708;23.330;2024-03-06T05:26:55;27.02;;;12.77;;
85137;SDS011;75497;42.708;23.330;2024-03-06T05:29:20;28.45;;;10.95;;
85137;SDS011;75497;42.708;23.330;2024-03-06T05:31:46;22.13;;;11.63;;
85137;SDS011;75497;42.708;23.330;2024-03-06T05:34:11;30.98;;;13.15;;
85137;SDS011;75497;42.708;23.330;2024-03-06T05:36:37;27.33;;;12.68;;
85137;SDS011;75497;42.708;23.330;2024-03-06T05:39:03;31.02;;;13.38;;
85137;SDS011;75497;42.708;23.330;2024-03-06T05:41:32;23.85;;;12.30;;
85137;SDS011;75497;42.708;23.330;2024-03-06T05:43:58;25.98;;;11.93;;
85137;SDS011;75497;42.708;23.330;2024-03-06T05:46:24;23.70;;;11.52;;
85137;SDS011;75497;42.708;23.330;2024-03-06T05:48:50;22.80;;;11.45;;
85137;SDS011;75497;42.708;23.330;2024-03-06T05:51:16;26.38;;;11.00;;
85137;SDS011;75497;42.708;23.330;2024-03-06T05:53:42;31.83;;;13.80;;
85137;SDS011;75497;42.708;23.330;2024-03-06T05:56:08;28.00;;;12.25;;
85137;SDS011;75497;42.708;23.330;2024-03-06T05:58:35;23.95;;;11.45;;
85137;SDS011;75497;42.708;23.330;2024-03-06T06:01:01;25.75;;;12.45;;
85137;SDS011;75497;42.708;23.330;2024-03-06T06:03:28;35.55;;;14.27;;
85137;SDS011;75497;42.708;23.330;2024-03-06T06:05:54;31.38;;;13.63;;
85137;SDS011;75497;42.708;23.330;2024-03-06T06:08:20;29.10;;;13.38;;
85137;SDS011;75497;42.708;23.330;2024-03-06T06:10:46;33.75;;;15.50;;
85137;SDS011;75497;42.708;23.330;2024-03-06T06:13:12;29.52;;;14.75;;
85137;SDS011;75497;42.708;23.330;2024-03-06T06:15:37;30.42;;;15.20;;
85137;SDS011;75497;42.708;23.330;2024-03-06T06:18:03;28.10;;;14.48;;
85137;SDS011;75497;42.708;23.330;2024-03-06T06:20:29;27.00;;;14.52;;
85137;SDS011;75497;42.708;23.330;2024-03-06T06:22:55;36.33;;;16.48;;
85137;SDS011;75497;42.708;23.330;2024-03-06T06:25:21;36.28;;;15.95;;
85137;SDS011;75497;42.708;23.330;2024-03-06T06:27:47;40.35;;;17.38;;
85137;SDS011;75497;42.708;23.330;2024-03-06T06:30:15;33.13;;;16.30;;
85137;SDS011;75497;42.708;23.330;2024-03-06T06:32:41;34.67;;;15.40;;
85137;SDS011;75497;42.708;23.330;2024-03-06T06:35:07;35.00;;;16.52;;
85137;SDS011;75497;42.708;23.330;2024-03-06T06:37:34;30.92;;;16.30;;
85137;SDS011;75497;42.708;23.330;2024-03-06T06:40:00;33.15;;;15.07;;
85137;SDS011;75497;42.708;23.330;2024-03-06T06:42:31;35.55;;;15.52;;
85137;SDS011;75497;42.708;23.330;2024-03-06T06:44:58;33.97;;;15.75;;
85137;SDS011;75497;42.708;23.330;2024-03-06T06:47:24;37.38;;;16.55;;
85137;SDS011;75497;42.708;23.330;2024-03-06T06:49:50;35.50;;;17.33;;
85137;SDS011;75497;42.708;23.330;2024-03-06T06:52:16;38.70;;;19.85;;
85137;SDS011;75497;42.708;23.330;2024-03-06T06:54:42;37.90;;;16.80;;
85137;SDS011;75497;42.708;23.330;2024-03-06T06:57:08;37.92;;;15.55;;
85137;SDS011;75497;42.708;23.330;2024-03-06T06:59:33;40.10;;;16.33;;
85137;SDS011;75497;42.708;23.330;2024-03-06T07:02:00;39.63;;;16.55;;
85137;SDS011;75497;42.708;23.330;2024-03-06T07:04:26;36.13;;;15.48;;
85137;SDS011;75497;42.708;23.330;2024-03-06T07:06:51;39.75;;;16.77;;
85137;SDS011;75497;42.708;23.330;2024-03-06T07:09:17;39.35;;;16.13;;
85137;SDS011;75497;42.708;23.330;2024-03-06T07:11:44;35.00;;;14.95;;
85137;SDS011;75497;42.708;23.330;2024-03-06T07:14:10;34.63;;;15.68;;
85137;SDS011;75497;42.708;23.330;2024-03-06T07:16:43;37.10;;;14.50;;
85137;SDS011;75497;42.708;23.330;2024-03-06T07:19:10;36.65;;;14.55;;
85137;SDS011;75497;42.708;23.330;2024-03-06T07:21:35;26.95;;;11.85;;
85137;SDS011;75497;42.708;23.330;2024-03-06T07:24:01;32.70;;;15.45;;
85137;SDS011;75497;42.708;23.330;2024-03-06T07:26:27;28.55;;;14.23;;
85137;SDS011;75497;42.708;23.330;2024-03-06T07:28:55;36.60;;;15.85;;
85137;SDS011;75497;42.708;23.330;2024-03-06T07:31:21;31.05;;;14.85;;
85137;SDS011;75497;42.708;23.330;2024-03-06T07:33:46;29.25;;;15.07;;
85137;SDS011;75497;42.708;23.330;2024-03-06T07:36:12;31.70;;;15.00;;
85137;SDS011;75497;42.708;23.330;2024-03-06T07:38:37;28.85;;;14.40;;
85137;SDS011;75497;42.708;23.330;2024-03-06T07:41:03;30.77;;;14.07;;
85137;SDS011;75497;42.708;23.330;2024-03-06T07:43:29;29.25;;;13.60;;
85137;SDS011;75497;42.708;23.330;2024-03-06T07:45:54;33.20;;;13.65;;
85137;SDS011;75497;42.708;23.330;2024-03-06T07:48:20;22.55;;;12.70;;
85137;SDS011;75497;42.708;23.330;2024-03-06T07:50:46;24.88;;;12.82;;
85137;SDS011;75497;42.708;23.330;2024-03-06T07:53:11;26.20;;;12.07;;
85137;SDS011;75497;42.708;23.330;2024-03-06T07:55:37;23.13;;;12.02;;
85137;SDS011;75497;42.708;23.330;2024-03-06T07:58:04;25.88;;;12.50;;
85137;SDS011;75497;42.708;23.330;2024-03-06T08:00:30;27.70;;;13.18;;
85137;SDS011;75497;42.708;23.330;2024-03-06T08:02:57;26.33;;;13.25;;
85137;SDS011;75497;42.708;23.330;2024-03-06T08:05:23;24.65;;;12.32;;
85137;SDS011;75497;42.708;23.330;2024-03-06T08:07:48;29.90;;;12.80;;
85137;SDS011;75497;42.708;23.330;2024-03-06T08:10:14;31.67;;;15.18;;
85137;SDS011;75497;42.708;23.330;2024-03-06T08:12:40;31.42;;;14.25;;
85137;SDS011;75497;42.708;23.330;2024-03-06T08:15:07;26.85;;;14.32;;
85137;SDS011;75497;42.708;23.330;2024-03-06T08:17:36;29.00;;;12.95;;
85137;SDS011;75497;42.708;23.330;2024-03-06T08:20:03;33.22;;;15.07;;
85137;SDS011;75497;42.708;23.330;2024-03-06T08:22:34;30.00;;;13.68;;
85137;SDS011;75497;42.708;23.330;2024-03-06T08:25:04;28.52;;;13.93;;
85137;SDS011;75497;42.708;23.330;2024-03-06T08:27:32;32.75;;;15.35;;
85137;SDS011;75497;42.708;23.330;2024-03-06T08:29:59;31.33;;;14.68;;
85137;SDS011;75497;42.708;23.330;2024-03-06T08:32:24;34.58;;;14.95;;
85137;SDS011;75497;42.708;23.330;2024-03-06T08:34:50;34.15;;;15.18;;
85137;SDS011;75497;42.708;23.330;2024-03-06T08:37:15;33.00;;;14.45;;
85137;SDS011;75497;42.708;23.330;2024-03-06T08:39:41;26.70;;;14.80;;
85137;SDS011;75497;42.708;23.330;2024-03-06T08:42:06;34.47;;;17.77;;
85137;SDS011;75497;42.708;23.330;2024-03-06T08:44:33;30.35;;;15.88;;
85137;SDS011;75497;42.708;23.330;2024-03-06T08:46:59;33.38;;;13.88;;
85137;SDS011;75497;42.708;23.330;2024-03-06T08:49:25;24.40;;;12.50;;
85137;SDS011;75497;42.708;23.330;2024-03-06T08:51:51;27.05;;;12.43;;
85137;SDS011;75497;42.708;23.330;2024-03-06T08:54:16;26.98;;;12.60;;
85137;SDS011;75497;42.708;23.330;2024-03-06T08:56:45;24.52;;;12.57;;
85137;SDS011;75497;42.708;23.330;2024-03-06T08:59:10;29.10;;;12.98;;
85137;SDS011;75497;42.708;23.330;2024-03-06T09:01:36;26.23;;;13.88;;
85137;SDS011;75497;42.708;23.330;2024-03-06T09:04:01;22.55;;;11.68;;
85137;SDS011;75497;42.708;23.330;2024-03-06T09:06:27;23.98;;;12.80;;
85137;SDS011;75497;42.708;23.330;2024-03-06T09:08:52;26.38;;;11.85;;
85137;SDS011;75497;42.708;23.330;2024-03-06T09:11:18;21.60;;;11.65;;
85137;SDS011;75497;42.708;23.330;2024-03-06T09:13:44;22.63;;;13.18;;
85137;SDS011;75497;42.708;23.330;2024-03-06T09:16:09;24.10;;;11.77;;
85137;SDS011;75497;42.708;23.330;2024-03-06T09:18:35;18.08;;;8.90;;
85137;SDS011;75497;42.708;23.330;2024-03-06T09:21:00;24.20;;;11.02;;
85137;SDS011;75497;42.708;23.330;2024-03-06T09:23:27;23.13;;;10.60;;
85137;SDS011;75497;42.708;23.330;2024-03-06T09:25:55;22.50;;;10.65;;
85137;SDS011;75497;42.708;23.330;2024-03-06T09:28:20;26.92;;;10.60;;
85137;SDS011;75497;42.708;23.330;2024-03-06T09:30:46;21.13;;;10.60;;
85137;SDS011;75497;42.708;23.330;2024-03-06T09:33:12;24.92;;;11.02;;
85137;SDS011;75497;42.708;23.330;2024-03-06T09:35:37;28.85;;;11.80;;
85137;SDS011;75497;42.708;23.330;2024-03-06T09:38:03;22.75;;;10.52;;
85137;SDS011;75497;42.708;23.330;2024-03-06T09:40:29;17.27;;;10.20;;
85137;SDS011;75497;42.708;23.330;2024-03-06T09:42:55;16.92;;;8.45;;
85137;SDS011;75497;42.708;23.330;2024-03-06T09:45:21;16.40;;;8.38;;
85137;SDS011;75497;42.708;23.330;2024-03-06T09:47:47;15.93;;;8.02;;
85137;SDS011;75497;42.708;23.330;2024-03-06T09:50:16;15.18;;;7.13;;
85137;SDS011;75497;42.708;23.330;2024-03-06T09:52:48;20.50;;;8.52;;
85137;SDS011;75497;42.708;23.330;2024-03-06T09:55:17;17.40;;;8.13;;
85137;SDS011;75497;42.708;23.330;2024-03-06T09:57:42;20.10;;;7.55;;
85137;SDS011;75497;42.708;23.330;2024-03-06T10:00:08;16.52;;;6.60;;
85137;SDS011;75497;42.708;23.330;2024-03-06T10:02:50;15.93;;;6.50;;
85137;SDS011;75497;42.708;23.330;2024-03-06T10:05:20;16.05;;;7.05;;
85137;SDS011;75497;42.708;23.330;2024-03-06T10:07:52;14.25;;;7.28;;
85137;SDS011;75497;42.708;23.330;2024-03-06T10:10:21;14.40;;;7.13;;
85137;SDS011;75497;42.708;23.330;2024-03-06T10:12:48;15.75;;;6.60;;
85137;SDS011;75497;42.708;23.330;2024-03-06T10:15:14;14.82;;;6.90;;
85137;SDS011;75497;42.708;23.330;2024-03-06T10:17:40;14.00;;;6.70;;
85137;SDS011;75497;42.708;23.330;2024-03-06T10:20:22;17.70;;;7.63;;
85137;SDS011;75497;42.708;23.330;2024-03-06T10:22:52;16.92;;;8.25;;
85137;SDS011;75497;42.708;23.330;2024-03-06T10:25:19;18.33;;;7.38;;
85137;SDS011;75497;42.708;23.330;2024-03-06T10:28:08;12.43;;;6.50;;
85137;SDS011;75497;42.708;23.330;2024-03-06T10:30:32;14.00;;;6.90;;
85137;SDS011;75497;42.708;23.330;2024-03-06T10:35:28;13.52;;;7.05;;
85137;SDS011;75497;42.708;23.330;2024-03-06T10:37:54;14.38;;;7.10;;
85137;SDS011;75497;42.708;23.330;2024-03-06T10:40:20;13.32;;;6.53;;
85137;SDS011;75497;42.708;23.330;2024-03-06T10:42:47;13.18;;;6.00;;
85137;SDS011;75497;42.708;23.330;2024-03-06T10:45:14;11.90;;;5.80;;
85137;SDS011;75497;42.708;23.330;2024-03-06T10:47:45;15.45;;;6.53;;
85137;SDS011;75497;42.708;23.330;2024-03-06T10:50:12;12.50;;;5.93;;
85137;SDS011;75497;42.708;23.330;2024-03-06T10:52:40;21.05;;;6.45;;
85137;SDS011;75497;42.708;23.330;2024-03-06T10:55:07;10.88;;;6.28;;
85137;SDS011;75497;42.708;23.330;2024-03-06T10:57:36;17.35;;;6.15;;
85137;SDS011;75497;42.708;23.330;2024-03-06T11:00:02;14.80;;;5.85;;
85137;SDS011;75497;42.708;23.330;2024-03-06T11:02:28;12.63;;;6.32;;
85137;SDS011;75497;42.708;23.330;2024-03-06T11:04:55;11.40;;;5.82;;
85137;SDS011;75497;42.708;23.330;2024-03-06T11:07:20;12.30;;;6.45;;
85137;SDS011;75497;42.708;23.330;2024-03-06T11:09:46;11.00;;;5.90;;
85137;SDS011;75497;42.708;23.330;2024-03-06T11:12:31;14.30;;;5.95;;
85137;SDS011;75497;42.708;23.330;2024-03-06T11:15:08;12.30;;;5.85;;
85137;SDS011;75497;42.708;23.330;2024-03-06T11:17:36;14.68;;;6.25;;
85137;SDS011;75497;42.708;23.330;2024-03-06T11:28:19;11.35;;;6.07;;
85137;SDS011;75497;42.708;23.330;2024-03-06T11:33:22;13.55;;;5.88;;
85137;SDS011;75497;42.708;23.330;2024-03-06T11:41:22;11.75;;;5.35;;
85137;SDS011;75497;42.708;23.330;2024-03-06T11:43:48;12.88;;;5.63;;
85137;SDS011;75497;42.708;23.330;2024-03-06T11:46:18;12.30;;;5.88;;
85137;SDS011;75497;42.708;23.330;2024-03-06T11:48:55;13.38;;;6.07;;
85137;SDS011;75497;42.708;23.330;2024-03-06T11:51:21;13.52;;;5.50;;
85137;SDS011;75497;42.708;23.330;2024-03-06T11:53:51;13.77;;;6.05;;
85137;SDS011;75497;42.708;23.330;2024-03-06T11:56:18;11.63;;;5.55;;
85137;SDS011;75497;42.708;23.330;2024-03-06T11:58:45;11.80;;;6.13;;
85137;SDS011;75497;42.708;23.330;2024-03-06T12:01:10;14.20;;;5.55;;
85137;SDS011;75497;42.708;23.330;2024-03-06T12:03:36;15.13;;;5.63;;
85137;SDS011;75497;42.708;23.330;2024-03-06T12:06:02;11.10;;;6.05;;
85137;SDS011;75497;42.708;23.330;2024-03-06T12:08:28;10.32;;;5.95;;
85137;SDS011;75497;42.708;23.330;2024-03-06T12:10:54;13.02;;;6.22;;
85137;SDS011;75497;42.708;23.330;2024-03-06T12:13:20;14.07;;;6.03;;
85137;SDS011;75497;42.708;23.330;2024-03-06T12:15:46;10.73;;;6.32;;
85137;SDS011;75497;42.708;23.330;2024-03-06T12:18:12;12.05;;;5.85;;
85137;SDS011;75497;42.708;23.330;2024-03-06T12:20:41;11.82;;;6.75;;
85137;SDS011;75497;42.708;23.330;2024-03-06T12:23:18;11.98;;;6.18;;
85137;SDS011;75497;42.708;23.330;2024-03-06T12:25:46;13.60;;;6.07;;
85137;SDS011;75497;42.708;23.330;2024-03-06T12:28:11;12.85;;;6.80;;
85137;SDS011;75497;42.708;23.330;2024-03-06T12:30:43;12.30;;;5.57;;
85137;SDS011;75497;42.708;23.330;2024-03-06T12:33:09;13.20;;;4.85;;
85137;SDS011;75497;42.708;23.330;2024-03-06T12:35:40;10.43;;;4.50;;
85137;SDS011;75497;42.708;23.330;2024-03-06T12:38:15;15.15;;;5.05;;
85137;SDS011;75497;42.708;23.330;2024-03-06T12:40:43;10.57;;;4.32;;
85137;SDS011;75497;42.708;23.330;2024-03-06T12:43:09;11.30;;;4.80;;
85137;SDS011;75497;42.708;23.330;2024-03-06T12:45:35;12.95;;;4.78;;
85137;SDS011;75497;42.708;23.330;2024-03-06T12:48:02;10.43;;;5.28;;
85137;SDS011;75497;42.708;23.330;2024-03-06T12:50:30;11.00;;;4.20;;
85137;SDS011;75497;42.708;23.330;2024-03-06T12:52:55;9.68;;;4.10;;
85137;SDS011;75497;42.708;23.330;2024-03-06T12:55:21;12.57;;;3.97;;
85137;SDS011;75497;42.708;23.330;2024-03-06T12:57:46;9.25;;;3.53;;
85137;SDS011;75497;42.708;23.330;2024-03-06T13:00:12;8.55;;;3.13;;
85137;SDS011;75497;42.708;23.330;2024-03-06T13:02:42;9.43;;;3.55;;
85137;SDS011;75497;42.708;23.330;2024-03-06T13:05:09;9.65;;;3.80;;
85137;SDS011;75497;42.708;23.330;2024-03-06T13:07:35;10.50;;;4.30;;
85137;SDS011;75497;42.708;23.330;2024-03-06T13:10:01;9.60;;;3.60;;
85137;SDS011;75497;42.708;23.330;2024-03-06T13:12:30;8.00;;;3.95;;
85137;SDS011;75497;42.708;23.330;2024-03-06T13:14:57;10.40;;;3.67;;
85137;SDS011;75497;42.708;23.330;2024-03-06T13:17:22;7.78;;;3.30;;
85137;SDS011;75497;42.708;23.330;2024-03-06T13:19:48;7.15;;;2.85;;
85137;SDS011;75497;42.708;23.330;2024-03-06T13:22:14;9.65;;;2.97;;
85137;SDS011;75497;42.708;23.330;2024-03-06T13:24:40;9.18;;;3.00;;
85137;SDS011;75497;42.708;23.330;2024-03-06T13:27:05;10.13;;;3.28;;
85137;SDS011;75497;42.708;23.330;2024-03-06T13:29:31;8.80;;;3.58;;
85137;SDS011;75497;42.708;23.330;2024-03-06T13:31:56;7.90;;;3.67;;
85137;SDS011;75497;42.708;23.330;2024-03-06T13:34:22;9.63;;;3.42;;
85137;SDS011;75497;42.708;23.330;2024-03-06T13:36:47;11.55;;;4.32;;
85137;SDS011;75497;42.708;23.330;2024-03-06T13:39:13;8.93;;;2.97;;
85137;SDS011;75497;42.708;23.330;2024-03-06T13:41:39;10.85;;;4.00;;
85137;SDS011;75497;42.708;23.330;2024-03-06T13:44:05;8.70;;;3.63;;
85137;SDS011;75497;42.708;23.330;2024-03-06T13:46:33;10.98;;;3.55;;
85137;SDS011;75497;42.708;23.330;2024-03-06T13:48:58;8.43;;;3.53;;
85137;SDS011;75497;42.708;23.330;2024-03-06T13:51:25;10.05;;;3.63;;
85137;SDS011;75497;42.708;23.330;2024-03-06T13:53:51;8.23;;;3.67;;
85137;SDS011;75497;42.708;23.330;2024-03-06T13:56:16;7.70;;;4.30;;
85137;SDS011;75497;42.708;23.330;2024-03-06T13:58:43;8.63;;;3.40;;
85137;SDS011;75497;42.708;23.330;2024-03-06T14:01:09;12.00;;;3.92;;
85137;SDS011;75497;42.708;23.330;2024-03-06T14:03:34;10.80;;;3.60;;
85137;SDS011;75497;42.708;23.330;2024-03-06T14:06:03;10.25;;;3.47;;
85137;SDS011;75497;42.708;23.330;2024-03-06T14:08:29;11.38;;;3.42;;
85137;SDS011;75497;42.708;23.330;2024-03-06T14:10:54;8.48;;;3.45;;
85137;SDS011;75497;42.708;23.330;2024-03-06T14:13:20;68.63;;;38.30;;
85137;SDS011;75497;42.708;23.330;2024-03-06T14:15:45;40.60;;;24.77;;
85137;SDS011;75497;42.708;23.330;2024-03-06T14:18:13;15.40;;;4.95;;
85137;SDS011;75497;42.708;23.330;2024-03-06T14:20:39;10.77;;;4.07;;
85137;SDS011;75497;42.708;23.330;2024-03-06T14:23:04;11.05;;;4.15;;
85137;SDS011;75497;42.708;23.330;2024-03-06T14:25:30;9.75;;;3.47;;
85137;SDS011;75497;42.708;23.330;2024-03-06T14:28:00;9.52;;;3.97;;
85137;SDS011;75497;42.708;23.330;2024-03-06T14:30:26;10.57;;;4.25;;